Time;durP1;ratioP1;P1;durP2;ratioP2;P2;SDS_P1;SDS_P2;PMS_P1;PMS_P2;Temp;Humidity;BMP_temperature;BMP_pressure;BME280_temperature;BME280_humidity;BME280_pressure;Samples;Min_cycle;Max_cycle;Signal;HPM_P1;HPM_P2
2022/03/29 00:01:07;;;;;;;;;28.25;25.00;;;;;18.66;42.26;101065.72;4995336;27;45597;-75
2022/03/29 00:03:33;;;;;;;;;29.75;29.50;;;;;18.65;42.65;101061.34;4997450;27;45947;-72
2022/03/29 00:05:58;;;;;;;;;34.50;28.25;;;;;18.61;42.82;101061.28;4994689;28;45334;-72
2022/03/29 00:08:24;;;;;;;;;33.75;30.25;;;;;18.56;42.98;101062.06;4995601;28;45438;-71
2022/03/29 00:10:50;;;;;;;;;38.75;27.00;;;;;18.44;43.24;101043.53;4994918;28;45865;-72
2022/03/29 00:13:16;;;;;;;;;34.00;26.75;;;;;18.47;43.90;101050.53;4998106;28;45465;-71
2022/03/29 00:15:42;;;;;;;;;31.50;27.00;;;;;18.47;43.85;101040.97;5002955;28;45392;-71
2022/03/29 00:18:07;;;;;;;;;33.50;23.75;;;;;18.43;43.74;101031.25;4994690;28;45316;-71
2022/03/29 00:20:33;;;;;;;;;29.00;24.75;;;;;18.42;44.22;101026.88;4999348;28;45929;-71
2022/03/29 00:22:59;;;;;;;;;36.50;28.50;;;;;18.43;43.82;101023.41;5001087;28;45370;-73
2022/03/29 00:25:24;;;;;;;;;31.00;27.50;;;;;18.34;44.40;101007.53;4999063;27;45323;-73
2022/03/29 00:27:50;;;;;;;;;32.00;28.75;;;;;18.43;44.15;101012.91;4998840;27;45596;-71
2022/03/29 00:30:16;;;;;;;;;28.50;25.75;;;;;18.39;44.56;101013.75;4988430;27;46733;-70
2022/03/29 00:32:44;;;;;;;;;31.25;26.25;;;;;18.42;44.29;101019.00;4999501;27;45947;-71
2022/03/29 00:35:10;;;;;;;;;35.50;30.25;;;;;18.34;44.38;101012.78;5012870;27;45950;-71
2022/03/29 00:37:41;;;;;;;;;30.25;27.50;;;;;18.33;44.59;101013.63;4977181;28;45554;-72
2022/03/29 00:40:09;;;;;;;;;33.75;29.50;;;;;18.31;44.94;101012.72;4993735;28;45324;-71
2022/03/29 00:42:35;;;;;;;;;36.50;28.25;;;;;18.30;45.18;101003.13;4994324;28;45493;-71
2022/03/29 00:45:01;;;;;;;;;38.50;28.50;;;;;18.27;44.99;101000.44;4994323;28;45388;-71
2022/03/29 00:47:27;;;;;;;;;34.50;28.00;;;;;18.24;45.22;101001.28;4994460;28;45494;-71
2022/03/29 00:49:53;;;;;;;;;32.75;30.50;;;;;18.19;45.49;100995.97;4994276;28;45354;-71
2022/03/29 00:52:20;;;;;;;;;31.25;26.75;;;;;18.14;45.53;100988.88;4993955;28;45256;-72
2022/03/29 00:54:46;;;;;;;;;31.25;28.50;;;;;18.14;45.36;100989.75;4995003;28;45380;-71
2022/03/29 00:57:12;;;;;;;;;33.75;30.50;;;;;18.10;45.79;100982.69;4994597;28;45400;-74
2022/03/29 00:59:41;;;;;;;;;30.75;23.25;;;;;18.10;45.56;100982.69;4993615;28;45851;-71
2022/03/29 01:02:07;;;;;;;;;34.00;27.75;;;;;18.12;45.92;100974.88;4993727;28;45418;-71
2022/03/29 01:04:33;;;;;;;;;39.50;31.00;;;;;18.12;45.47;100972.25;4992918;28;45423;-71
2022/03/29 01:06:59;;;;;;;;;34.25;30.75;;;;;18.08;45.73;100968.69;4994023;28;45541;-71
2022/03/29 01:09:26;;;;;;;;;37.50;31.50;;;;;18.06;45.95;100962.56;4993993;27;45235;-72
2022/03/29 01:11:53;;;;;;;;;40.00;31.75;;;;;18.05;45.97;100966.88;4994492;28;45250;-72
2022/03/29 01:14:21;;;;;;;;;33.00;27.25;;;;;18.03;45.98;100967.72;4993751;28;45398;-71
2022/03/29 01:19:31;;;;;;;;;36.00;32.00;;;;;18.05;45.78;100960.78;4996526;28;45418;-72
2022/03/29 01:21:59;;;;;;;;;36.50;30.75;;;;;18.05;46.03;100963.41;4993518;28;45892;-71
2022/03/29 01:24:26;;;;;;;;;38.50;30.50;;;;;18.01;46.03;100954.63;4993832;28;45407;-72
2022/03/29 01:26:55;;;;;;;;;34.25;29.25;;;;;17.99;45.47;100953.69;4999192;27;45243;-75
2022/03/29 01:29:21;;;;;;;;;30.00;27.00;;;;;17.97;45.69;100954.53;5013362;27;46077;-71
2022/03/29 01:31:49;;;;;;;;;34.00;27.75;;;;;17.94;45.25;100948.34;5004515;28;45510;-72
2022/03/29 01:34:17;;;;;;;;;31.00;28.50;;;;;17.92;45.55;100949.19;4993179;28;45409;-71
2022/03/29 01:36:42;;;;;;;;;29.00;27.25;;;;;17.88;45.18;100948.25;4992424;28;45278;-75
2022/03/29 01:39:08;;;;;;;;;32.25;25.50;;;;;17.87;45.42;100941.22;4987193;28;46911;-71
2022/03/29 01:41:34;;;;;;;;;26.00;24.75;;;;;17.88;44.96;100932.53;4993616;28;45409;-74
2022/03/29 01:44:01;;;;;;;;;31.25;25.25;;;;;17.85;45.05;100931.59;4993370;28;45430;-72
2022/03/29 01:46:27;;;;;;;;;31.00;26.00;;;;;17.91;44.84;100927.34;4994043;27;45367;-76
2022/03/29 01:48:53;;;;;;;;;30.50;26.00;;;;;17.93;44.61;100924.72;4994613;28;45396;-72
2022/03/29 01:51:19;;;;;;;;;31.25;26.00;;;;;17.92;44.67;100926.50;4993462;28;45364;-79
2022/03/29 01:53:51;;;;;;;;;25.00;23.75;;;;;17.93;44.53;100911.63;4992468;27;45324;-73
2022/03/29 01:56:17;;;;;;;;;30.25;26.50;;;;;17.96;43.96;100903.84;4985849;28;45346;-78
2022/03/29 01:58:43;;;;;;;;;27.75;23.25;;;;;17.97;43.93;100907.38;4993559;28;45366;-71
2022/03/29 02:01:08;;;;;;;;;29.25;25.00;;;;;17.91;43.77;100902.91;4993214;28;45395;-73
2022/03/29 02:03:34;;;;;;;;;36.50;27.25;;;;;17.88;43.68;100890.59;4994215;28;45283;-80
2022/03/29 02:06:00;;;;;;;;;32.50;24.75;;;;;17.85;43.47;100880.09;4993442;28;45513;-73
2022/03/29 02:08:26;;;;;;;;;25.75;20.25;;;;;17.91;43.36;100888.06;4993362;27;45493;-71
2022/03/29 02:10:52;;;;;;;;;27.75;26.00;;;;;17.92;43.25;100887.19;4993382;28;45262;-75
2022/03/29 02:13:19;;;;;;;;;27.75;25.00;;;;;17.88;42.82;100871.41;4996456;27;45458;-81
2022/03/29 02:15:49;;;;;;;;;26.50;21.25;;;;;17.94;42.47;100876.72;4979911;27;45613;-79
2022/03/29 02:18:15;;;;;;;;;26.75;24.25;;;;;18.00;42.19;100882.13;4998071;27;45421;-87
2022/03/29 02:20:41;;;;;;;;;31.00;27.75;;;;;18.01;42.25;100875.13;4965212;28;45273;-79
2022/03/29 02:23:09;;;;;;;;;29.25;22.75;;;;;17.97;41.73;100858.47;4999095;28;45285;-79
2022/03/29 02:25:36;;;;;;;;;28.25;22.50;;;;;17.67;41.54;100814.34;4981067;28;45763;-79
2022/03/29 02:28:03;;;;;;;;;21.50;20.50;;;;;17.77;41.28;100829.31;4979860;28;47989;-72
2022/03/29 02:30:29;;;;;;;;;30.50;25.00;;;;;17.90;41.02;100847.00;4964342;28;45720;-77
2022/03/29 02:32:56;;;;;;;;;34.50;27.50;;;;;17.96;40.69;100854.06;5000123;28;45215;-72
2022/03/29 02:35:21;;;;;;;;;25.25;24.25;;;;;17.92;40.55;100850.53;5000478;27;45235;-78
2022/03/29 02:37:47;;;;;;;;;26.75;23.75;;;;;17.90;40.46;100838.28;4999798;27;46122;-87
2022/03/29 02:40:13;;;;;;;;;27.00;24.75;;;;;17.89;40.34;100834.75;4984993;27;45747;-88
2022/03/29 02:42:44;;;;;;;;;23.25;21.50;;;;;17.83;39.97;100826.81;5001931;28;45336;-85
2022/03/29 02:45:21;;;;;;;;;25.75;22.00;;;;;17.79;40.02;100830.22;4985287;28;45295;-89
2022/03/29 02:47:50;;;;;;;;;24.75;19.75;;;;;17.76;39.98;100827.59;5070691;27;45486;-88
2022/03/29 02:50:16;;;;;;;;;22.75;19.75;;;;;17.74;39.56;100821.44;5084561;27;46039;-87
2022/03/29 02:52:51;;;;;;;;;27.00;22.50;;;;;17.72;39.52;100813.53;5103682;27;45363;-88
2022/03/29 02:55:18;;;;;;;;;24.25;21.00;;;;;17.75;39.32;100818.84;5103463;27;45290;-89
2022/03/29 02:57:46;;;;;;;;;21.25;21.00;;;;;17.79;39.25;100823.28;5106821;27;45431;-89
2022/03/29 03:00:15;;;;;;;;;26.50;22.00;;;;;17.78;38.93;100821.50;5093912;27;45855;-90
2022/03/29 03:02:44;;;;;;;;;22.75;17.75;;;;;17.76;38.94;100820.59;5115793;27;45386;-84
2022/03/29 03:05:10;;;;;;;;;20.00;17.25;;;;;17.74;39.22;100826.69;5118873;27;45001;-74
2022/03/29 03:07:40;;;;;;;;;22.50;21.00;;;;;17.71;38.95;100816.16;5114466;27;45389;-80
2022/03/29 03:10:06;;;;;;;;;23.50;20.00;;;;;17.65;38.99;100814.31;5106817;27;45989;-72
2022/03/29 03:12:36;;;;;;;;;26.00;23.50;;;;;17.70;38.92;100824.84;5068045;27;45330;-81
2022/03/29 03:15:04;;;;;;;;;26.75;22.50;;;;;17.69;39.03;100813.53;5016058;27;45276;-89
2022/03/29 03:17:30;;;;;;;;;26.25;20.00;;;;;17.68;39.06;100797.75;5004183;27;45509;-78
2022/03/29 03:19:55;;;;;;;;;22.00;20.50;;;;;17.69;39.13;100795.19;5000570;27;45442;-76
2022/03/29 03:22:21;;;;;;;;;25.00;19.00;;;;;17.69;39.05;100791.66;4996362;27;45465;-75
2022/03/29 03:24:47;;;;;;;;;21.00;18.75;;;;;17.66;39.07;100795.13;4996001;27;45480;-84
2022/03/29 03:27:13;;;;;;;;;25.75;19.50;;;;;17.57;39.16;100782.78;4997512;27;46300;-79
2022/03/29 03:29:39;;;;;;;;;28.75;22.00;;;;;17.58;39.20;100788.91;4997651;27;45336;-78
2022/03/29 03:32:05;;;;;;;;;26.75;22.25;;;;;17.61;39.08;100797.69;4997315;27;45470;-80
2022/03/29 03:34:30;;;;;;;;;27.50;21.25;;;;;17.59;39.39;100790.66;4998522;28;45154;-83
2022/03/29 03:36:57;;;;;;;;;26.25;22.50;;;;;17.61;39.25;100779.34;5004612;28;45259;-79
2022/03/29 03:39:23;;;;;;;;;21.75;19.75;;;;;17.58;39.50;100787.16;5088515;27;45176;-77
2022/03/29 03:41:48;;;;;;;;;21.50;19.00;;;;;17.59;39.46;100788.91;5102378;27;45411;-76
2022/03/29 03:44:15;;;;;;;;;23.50;21.25;;;;;17.60;39.47;100787.19;5068856;27;45836;-78
2022/03/29 03:46:40;;;;;;;;;29.00;23.75;;;;;17.54;39.97;100774.00;4996458;28;45410;-77
2022/03/29 03:49:06;;;;;;;;;22.75;19.00;;;;;17.55;39.78;100787.09;5012368;28;45429;-79
2022/03/29 03:51:31;;;;;;;;;22.00;18.75;;;;;17.48;40.15;100773.06;5008822;27;45299;-78
2022/03/29 03:53:58;;;;;;;;;24.25;21.25;;;;;17.45;40.40;100775.63;5000585;28;45459;-71
2022/03/29 03:56:23;;;;;;;;;20.50;18.25;;;;;17.43;40.47;100763.38;4983566;28;45608;-71
2022/03/29 03:58:49;;;;;;;;;23.75;20.00;;;;;17.36;40.85;100754.53;4994780;28;45367;-72
2022/03/29 04:01:15;;;;;;;;;21.00;17.75;;;;;17.40;41.04;100758.09;4997680;28;45497;-76
2022/03/29 04:03:40;;;;;;;;;20.50;17.75;;;;;17.44;41.17;100759.91;5007800;28;44874;-78
2022/03/29 04:06:06;;;;;;;;;24.50;19.50;;;;;17.47;41.06;100755.59;5006157;27;46497;-74
2022/03/29 04:08:31;;;;;;;;;23.50;18.00;;;;;17.49;41.51;100756.47;5005423;28;45142;-86
2022/03/29 04:10:57;;;;;;;;;24.00;19.00;;;;;17.49;41.05;100748.63;4996566;28;45240;-88
2022/03/29 04:13:23;;;;;;;;;25.00;20.75;;;;;17.54;41.30;100756.56;4996318;28;45217;-72
2022/03/29 04:15:49;;;;;;;;;21.50;19.50;;;;;17.49;41.57;100751.22;4996527;28;45460;-82
2022/03/29 04:18:16;;;;;;;;;21.25;17.25;;;;;17.49;41.55;100742.50;5000748;27;45311;-75
2022/03/29 04:20:47;;;;;;;;;21.00;17.00;;;;;17.46;41.87;100729.38;5006613;28;45536;-77
2022/03/29 04:23:13;;;;;;;;;21.75;19.75;;;;;17.48;42.18;100743.38;5000416;28;45262;-72
2022/03/29 04:25:39;;;;;;;;;21.00;19.25;;;;;17.46;42.25;100745.97;4995738;28;46131;-81
2022/03/29 04:28:04;;;;;;;;;23.00;21.00;;;;;17.44;42.44;100749.44;4995593;27;45447;-80
2022/03/29 04:30:30;;;;;;;;;22.25;19.75;;;;;17.37;42.44;100740.59;4996743;28;45309;-74
2022/03/29 04:32:55;;;;;;;;;27.00;21.50;;;;;17.40;42.75;100747.63;4996466;28;45244;-77
2022/03/29 04:35:21;;;;;;;;;28.00;21.25;;;;;17.38;42.91;100741.47;4995369;28;46013;-83
2022/03/29 04:37:47;;;;;;;;;24.50;19.75;;;;;17.38;43.00;100744.97;4996367;28;45603;-79
2022/03/29 04:40:13;;;;;;;;;27.50;24.50;;;;;17.39;42.99;100738.00;5011688;28;45435;-75
2022/03/29 04:42:47;;;;;;;;;22.25;20.00;;;;;17.37;43.41;100745.84;5014810;27;45317;-77
2022/03/29 04:45:13;;;;;;;;;27.75;22.00;;;;;17.33;43.39;100734.41;5001171;27;46024;-83
2022/03/29 04:47:40;;;;;;;;;28.75;21.50;;;;;17.29;44.54;100737.84;4998008;28;45341;-80
2022/03/29 04:50:07;;;;;;;;;22.75;19.25;;;;;17.27;44.43;100729.09;4996284;28;45265;-73
2022/03/29 04:52:33;;;;;;;;;31.25;23.25;;;;;17.21;45.02;100710.69;4995719;28;45589;-78
2022/03/29 04:54:58;;;;;;;;;27.50;22.75;;;;;17.24;44.90;100721.19;4996731;27;45961;-75
2022/03/29 04:57:24;;;;;;;;;33.50;24.50;;;;;17.20;45.59;100723.72;4996594;28;45453;-74
2022/03/29 04:59:50;;;;;;;;;30.50;25.00;;;;;17.18;45.87;100731.56;5014963;28;45452;-75
2022/03/29 05:02:15;;;;;;;;;32.00;21.75;;;;;17.17;45.89;100735.91;5022378;28;45332;-73
2022/03/29 05:04:41;;;;;;;;;33.75;29.75;;;;;17.15;45.98;100744.59;5019969;27;46181;-73
2022/03/29 05:07:07;;;;;;;;;24.25;22.50;;;;;17.17;46.01;100759.44;5015118;28;45408;-80
2022/03/29 05:09:32;;;;;;;;;29.00;24.50;;;;;17.17;46.01;100756.84;5016094;28;45420;-78
2022/03/29 05:11:59;;;;;;;;;33.50;22.50;;;;;17.15;45.87;100744.59;5010843;28;45503;-71
2022/03/29 05:14:25;;;;;;;;;31.50;23.00;;;;;17.19;46.10;100738.56;5005200;28;45781;-72
2022/03/29 05:16:51;;;;;;;;;29.25;24.25;;;;;17.17;46.16;100721.97;5002648;27;45257;-78
2022/03/29 05:19:17;;;;;;;;;24.00;20.75;;;;;17.15;46.38;100732.41;4996374;28;45253;-79
2022/03/29 05:21:43;;;;;;;;;26.00;18.50;;;;;17.12;46.58;100731.44;5006934;28;45685;-72
2022/03/29 05:24:12;;;;;;;;;32.25;24.75;;;;;17.10;46.56;100735.81;5003922;28;45653;-72
2022/03/29 05:26:40;;;;;;;;;26.25;24.50;;;;;17.12;46.46;100741.91;4976542;28;45521;-75
2022/03/29 05:29:05;;;;;;;;;28.50;24.00;;;;;17.12;46.55;100744.53;4996908;27;45588;-72
2022/03/29 05:31:31;;;;;;;;;26.25;22.25;;;;;17.17;46.61;100743.75;4996606;28;45162;-80
2022/03/29 05:33:56;;;;;;;;;28.75;23.75;;;;;17.17;46.63;100732.41;4994710;28;45332;-79
2022/03/29 05:36:22;;;;;;;;;25.75;22.25;;;;;17.18;46.69;100723.72;4996083;28;45418;-79
2022/03/29 05:38:50;;;;;;;;;25.00;21.25;;;;;17.26;46.54;100731.69;4997463;28;45431;-83
2022/03/29 05:41:19;;;;;;;;;31.25;23.00;;;;;17.27;46.36;100723.88;5000362;28;45296;-71
2022/03/29 05:43:48;;;;;;;;;26.75;25.00;;;;;17.32;46.39;100723.94;5004147;28;46200;-73
2022/03/29 05:49:02;;;;;;;;;34.75;25.00;;;;;17.30;46.32;100717.78;5000900;28;45346;-77
2022/03/29 05:51:29;;;;;;;;;28.50;25.00;;;;;17.29;45.93;100714.31;5008445;27;45668;-76
2022/03/29 05:53:56;;;;;;;;;37.25;26.50;;;;;17.29;46.30;100714.31;5002554;27;45305;-81
2022/03/29 05:56:23;;;;;;;;;27.25;24.00;;;;;17.28;46.57;100707.31;4997144;28;45878;-83
2022/03/29 05:58:50;;;;;;;;;32.00;27.50;;;;;17.25;46.28;100696.78;4995430;27;45335;-77
2022/03/29 06:01:16;;;;;;;;;29.25;28.00;;;;;17.30;45.91;100710.84;4997047;28;45494;-76
2022/03/29 06:03:42;;;;;;;;;24.25;22.00;;;;;17.26;45.96;100708.16;4997653;28;45409;-75
2022/03/29 06:06:08;;;;;;;;;28.75;21.75;;;;;17.22;46.49;100703.72;4995380;28;45951;-80
2022/03/29 06:08:35;;;;;;;;;29.00;24.00;;;;;17.25;45.73;100709.88;4996390;28;45378;-81
2022/03/29 06:11:01;;;;;;;;;23.50;22.25;;;;;17.25;45.83;100706.38;4997129;28;45558;-76
2022/03/29 06:13:27;;;;;;;;;31.25;26.25;;;;;17.28;45.75;100709.94;5027011;27;46486;-71
2022/03/29 06:15:55;;;;;;;;;31.00;24.25;;;;;17.30;45.59;100702.09;4999175;27;45315;-82
2022/03/29 06:18:21;;;;;;;;;28.50;21.75;;;;;17.35;45.60;100721.38;4999797;27;45466;-79
2022/03/29 06:20:50;;;;;;;;;32.75;23.00;;;;;17.33;45.53;100731.78;4997081;28;45474;-75
2022/03/29 06:23:23;;;;;;;;;26.25;23.25;;;;;17.30;44.89;100725.63;5048730;27;45351;-72
2022/03/29 06:25:50;;;;;;;;;27.75;25.25;;;;;17.30;45.47;100729.16;5005033;27;45411;-75
2022/03/29 06:28:17;;;;;;;;;30.75;27.75;;;;;17.34;45.23;100722.22;4996074;27;45251;-78
2022/03/29 06:30:43;;;;;;;;;25.25;23.25;;;;;17.35;45.35;100717.84;5009068;27;45374;-74
2022/03/29 06:33:10;;;;;;;;;26.50;22.00;;;;;17.38;45.83;100713.59;5008031;27;45528;-79
2022/03/29 06:35:38;;;;;;;;;30.25;24.75;;;;;17.48;45.56;100725.94;4995999;28;45425;-76
2022/03/29 06:38:05;;;;;;;;;29.25;24.00;;;;;17.52;45.40;100742.56;4998509;28;45422;-76
2022/03/29 06:40:32;;;;;;;;;30.75;27.00;;;;;17.52;45.65;100745.19;4995136;27;45611;-75
2022/03/29 06:42:58;;;;;;;;;26.50;26.50;;;;;17.55;45.40;100755.69;5023185;27;45342;-74
2022/03/29 06:45:27;;;;;;;;;25.25;21.00;;;;;17.55;45.07;100757.44;4997435;27;46082;-76
2022/03/29 06:47:54;;;;;;;;;29.50;26.75;;;;;17.58;44.99;100755.75;4994094;28;45767;-75
2022/03/29 06:50:19;;;;;;;;;30.75;28.25;;;;;17.57;45.12;100747.88;4994114;28;45336;-75
2022/03/29 06:52:47;;;;;;;;;25.50;24.00;;;;;17.59;45.33;100748.78;5001289;27;47125;-75
2022/03/29 06:55:16;;;;;;;;;29.25;26.75;;;;;17.57;45.16;100740.03;5006860;27;45260;-75
2022/03/29 06:57:43;;;;;;;;;30.25;25.50;;;;;17.53;45.02;100748.66;4994180;27;45492;-75
2022/03/29 07:00:09;;;;;;;;;34.50;26.75;;;;;17.44;45.23;100729.38;4996106;28;45507;-76
2022/03/29 07:02:36;;;;;;;;;30.50;26.75;;;;;17.51;45.25;100734.69;5005297;28;45478;-78
2022/03/29 07:05:02;;;;;;;;;30.50;27.50;;;;;17.60;45.03;100745.31;4997189;27;45605;-76
2022/03/29 07:07:29;;;;;;;;;39.50;26.50;;;;;17.45;45.45;100722.38;4995916;27;45536;-78
2022/03/29 07:12:54;;;;;;;;;30.00;24.00;;;;;17.56;45.26;100730.41;4981388;28;45846;-74
2022/03/29 07:15:21;;;;;;;;;24.00;21.75;;;;;17.61;46.29;100727.00;4975671;28;45988;-74
2022/03/29 07:17:47;;;;;;;;;29.25;22.75;;;;;17.69;46.66;100726.22;5008353;28;45415;-76
2022/03/29 07:20:16;;;;;;;;;32.50;28.75;;;;;17.70;45.91;100713.16;5015350;28;45462;-76
2022/03/29 07:22:42;;;;;;;;;28.25;25.50;;;;;17.73;46.02;100730.66;5015679;28;45485;-77
2022/03/29 07:25:09;;;;;;;;;31.00;22.50;;;;;17.74;46.23;100724.56;4984971;27;45922;-76
2022/03/29 07:27:34;;;;;;;;;37.50;24.50;;;;;17.73;46.69;100726.28;4962040;28;45782;-72
2022/03/29 07:30:03;;;;;;;;;33.25;27.25;;;;;17.70;46.04;100713.16;4994685;27;45256;-75
2022/03/29 07:32:28;;;;;;;;;29.50;25.75;;;;;17.64;45.96;100703.50;4994594;27;45310;-76
2022/03/29 07:34:55;;;;;;;;;38.00;25.75;;;;;17.60;46.10;100696.44;4994913;28;45421;-76
2022/03/29 07:37:21;;;;;;;;;30.75;27.50;;;;;17.60;46.43;100704.28;4995966;28;45518;-76
2022/03/29 07:39:48;;;;;;;;;28.00;24.50;;;;;17.63;46.64;100696.50;4997857;28;45469;-77
2022/03/29 07:42:14;;;;;;;;;30.00;24.50;;;;;17.70;46.37;100699.19;4995123;27;45419;-76
2022/03/29 07:44:40;;;;;;;;;29.75;24.75;;;;;17.70;46.23;100688.69;4997871;28;45903;-77
2022/03/29 07:47:05;;;;;;;;;35.00;28.25;;;;;17.72;46.24;100690.47;4997412;28;46255;-74
2022/03/29 07:49:31;;;;;;;;;28.25;26.50;;;;;17.64;46.11;100676.41;4997098;27;45540;-77
2022/03/29 07:51:57;;;;;;;;;31.50;26.75;;;;;17.68;46.46;100680.84;4994724;28;45315;-77
2022/03/29 07:54:22;;;;;;;;;29.75;26.50;;;;;17.70;46.78;100684.38;5046391;27;45181;-83
2022/03/29 07:56:48;;;;;;;;;29.50;24.75;;;;;17.73;46.70;100684.38;5013387;27;45413;-80
2022/03/29 07:59:14;;;;;;;;;28.25;25.25;;;;;17.75;46.80;100700.13;4994426;27;45271;-79
2022/03/29 08:01:39;;;;;;;;;29.50;23.50;;;;;17.77;46.79;100709.75;5001612;27;47237;-82
2022/03/29 08:04:05;;;;;;;;;26.75;23.75;;;;;17.70;47.03;100710.53;4989057;28;45499;-80
2022/03/29 08:06:31;;;;;;;;;30.50;27.00;;;;;17.68;47.23;100701.78;5007615;28;45556;-81
2022/03/29 08:08:57;;;;;;;;;24.50;24.25;;;;;17.67;47.39;100694.78;4993779;28;45512;-81
2022/03/29 08:11:22;;;;;;;;;28.00;25.50;;;;;17.69;47.22;100695.69;5006879;27;46043;-82
2022/03/29 08:13:49;;;;;;;;;30.00;26.00;;;;;17.69;47.52;100695.69;4988087;28;45514;-74
2022/03/29 08:16:15;;;;;;;;;32.00;25.25;;;;;17.78;47.51;100689.69;5009827;28;45483;-77
2022/03/29 08:18:41;;;;;;;;;35.75;30.00;;;;;17.82;47.25;100691.50;5006864;27;45471;-75
2022/03/29 08:23:53;;;;;;;;;28.25;26.00;;;;;17.95;47.50;100684.66;4998596;28;45765;-79
2022/03/29 08:26:19;;;;;;;;;32.00;28.25;;;;;18.02;47.08;100696.13;4993496;28;45469;-75
2022/03/29 08:28:46;;;;;;;;;27.75;24.75;;;;;17.98;47.00;100671.63;4995851;28;45558;-77
2022/03/29 08:31:12;;;;;;;;;33.00;27.50;;;;;18.05;47.04;100673.47;4976115;28;48135;-77
2022/03/29 08:33:37;;;;;;;;;29.00;26.25;;;;;18.16;46.94;100675.31;5001159;28;45461;-73
2022/03/29 08:36:03;;;;;;;;;31.25;26.50;;;;;18.23;47.00;100674.56;5002151;28;45390;-73
2022/03/29 08:38:29;;;;;;;;;30.75;26.00;;;;;18.30;46.37;100673.75;5008101;28;45322;-73
2022/03/29 08:40:58;;;;;;;;;31.00;26.50;;;;;18.35;47.09;100669.44;5010737;27;45258;-71
2022/03/29 08:43:27;;;;;;;;;28.50;25.00;;;;;18.43;47.41;100668.63;5001125;27;45850;-72
2022/03/29 08:45:54;;;;;;;;;35.75;29.25;;;;;18.38;46.70;100648.47;4993279;27;45382;-72
2022/03/29 08:48:27;;;;;;;;;32.00;26.75;;;;;18.49;46.65;100647.72;4991312;27;45543;-72
2022/03/29 08:50:53;;;;;;;;;31.75;23.00;;;;;18.52;46.45;100648.59;4992733;28;46134;-74
2022/03/29 08:53:20;;;;;;;;;30.00;25.75;;;;;18.55;46.39;100651.28;4991949;28;46012;-71
2022/03/29 08:55:47;;;;;;;;;29.00;25.50;;;;;18.56;46.91;100642.53;4995036;28;45527;-72
2022/03/29 08:58:13;;;;;;;;;33.00;26.75;;;;;18.58;47.00;100634.69;5000581;28;45659;-74
2022/03/29 09:00:41;;;;;;;;;36.50;28.50;;;;;18.69;46.74;100647.91;4993685;27;45448;-73
2022/03/29 09:03:07;;;;;;;;;35.75;28.75;;;;;18.68;47.26;100628.66;4992668;28;45926;-73
2022/03/29 09:05:33;;;;;;;;;37.50;31.00;;;;;18.68;46.70;100612.91;4988329;28;45386;-72
2022/03/29 09:08:03;;;;;;;;;31.75;27.25;;;;;18.81;47.22;100623.50;4992874;28;45410;-74
2022/03/29 09:10:41;;;;;;;;;30.00;26.25;;;;;18.83;46.35;100619.16;4991545;28;47685;-73
2022/03/29 09:13:31;;;;;;;;;39.75;28.75;;;;;18.83;46.39;100619.16;4992803;28;45972;-74
2022/03/29 09:16:01;;;;;;;;;34.50;27.50;;;;;18.88;45.73;100622.72;4992934;28;45457;-74
2022/03/29 09:18:28;;;;;;;;;30.75;26.50;;;;;18.91;45.79;100616.59;4975761;28;45458;-73
2022/03/29 09:21:13;;;;;;;;;39.50;30.25;;;;;18.95;46.12;100615.81;4992508;28;45481;-75
2022/03/29 09:23:41;;;;;;;;;33.00;29.00;;;;;18.96;45.67;100622.78;4999564;27;45813;-72
2022/03/29 09:26:24;;;;;;;;;36.00;29.25;;;;;18.99;45.87;100618.44;4975756;27;45514;-73
2022/03/29 09:28:51;;;;;;;;;34.50;27.25;;;;;18.97;46.21;100621.91;4997457;28;45497;-74
2022/03/29 09:31:28;;;;;;;;;27.00;24.00;;;;;18.93;46.48;100621.00;4975477;28;47764;-73
2022/03/29 09:34:15;;;;;;;;;35.50;28.25;;;;;18.94;46.55;100622.78;4994069;28;45856;-73
2022/03/29 09:36:44;;;;;;;;;35.00;32.00;;;;;18.91;46.21;100617.47;5006909;28;45335;-71
2022/03/29 09:39:31;;;;;;;;;32.50;29.25;;;;;18.83;46.47;100611.28;5002691;27;45534;-72
2022/03/29 09:42:02;;;;;;;;;28.75;27.75;;;;;18.79;47.53;100606.91;4993198;28;46184;-74
2022/03/29 09:44:37;;;;;;;;;32.75;29.25;;;;;18.84;47.66;100610.44;4994022;28;45912;-74
2022/03/29 09:47:07;;;;;;;;;39.25;31.75;;;;;18.83;47.30;100606.94;5016005;27;45362;-73
2022/03/29 09:50:06;;;;;;;;;34.25;30.75;;;;;18.88;47.58;100612.22;4988322;28;45250;-73
2022/03/29 09:52:35;;;;;;;;;34.50;30.50;;;;;18.95;47.88;100613.19;4991218;28;47938;-74
2022/03/29 09:55:23;;;;;;;;;36.25;31.75;;;;;18.92;46.97;100600.84;4979178;28;46027;-74
2022/03/29 09:57:49;;;;;;;;;37.50;31.75;;;;;18.96;47.35;100602.69;5005515;28;45332;-72
2022/03/29 10:00:32;;;;;;;;;26.75;25.25;;;;;19.00;47.21;100596.59;4974585;28;45660;-73
2022/03/29 10:02:59;;;;;;;;;35.25;25.25;;;;;19.02;47.62;100593.97;4992143;28;45539;-72
2022/03/29 10:05:26;;;;;;;;;39.75;29.75;;;;;19.07;47.70;100583.50;4993367;27;45899;-75
2022/03/29 10:10:48;;;;;;;;;37.00;31.00;;;;;19.10;47.13;100570.41;4992571;28;45428;-72
2022/03/29 10:13:20;;;;;;;;;35.25;31.25;;;;;19.08;46.85;100574.78;4991272;28;46207;-73
2022/03/29 10:15:45;;;;;;;;;37.00;32.75;;;;;19.10;47.02;100563.41;4992747;28;46005;-74
2022/03/29 10:18:11;;;;;;;;;36.25;31.50;;;;;19.17;46.96;100565.19;4992705;27;45282;-72
2022/03/29 10:20:37;;;;;;;;;38.25;30.00;;;;;19.23;46.92;100552.97;5009364;28;45523;-73
2022/03/29 10:23:06;;;;;;;;;32.75;29.50;;;;;19.27;46.27;100552.13;4998055;27;45391;-73
2022/03/29 10:25:33;;;;;;;;;22.50;22.50;;;;;19.33;46.02;100552.16;4991095;28;45238;-80
2022/03/29 10:28:01;;;;;;;;;38.25;30.50;;;;;19.40;46.13;100558.31;4992053;27;45487;-77
2022/03/29 10:30:40;;;;;;;;;41.25;30.50;;;;;19.47;45.62;100552.19;4992895;28;45396;-76
2022/03/29 10:33:24;;;;;;;;;38.25;33.25;;;;;19.56;45.91;100554.00;4994530;28;47824;-78
2022/03/29 10:36:05;;;;;;;;;31.75;29.75;;;;;19.64;45.44;100552.25;4997249;28;45374;-75
2022/03/29 10:38:49;;;;;;;;;44.75;34.25;;;;;19.80;44.49;100547.94;5007607;27;45484;-80
2022/03/29 10:41:30;;;;;;;;;38.00;32.50;;;;;19.85;44.93;100542.69;4995918;27;45449;-73
2022/03/29 10:44:08;;;;;;;;;32.25;30.50;;;;;19.94;44.87;100542.72;4970993;28;46848;-74
2022/03/29 10:46:36;;;;;;;;;40.25;27.50;;;;;20.05;43.85;100538.38;4994991;28;45265;-77
2022/03/29 10:49:32;;;;;;;;;39.00;29.75;;;;;20.18;43.40;100538.38;5011416;28;45428;-73
2022/03/29 10:52:07;;;;;;;;;35.50;31.00;;;;;20.29;43.30;100531.38;4998432;28;45422;-72
2022/03/29 10:54:38;;;;;;;;;34.50;31.75;;;;;20.39;42.37;100532.28;5013351;27;46266;-72
2022/03/29 10:57:06;;;;;;;;;30.50;27.75;;;;;20.50;41.96;100534.88;4998613;27;45836;-73
2022/03/29 10:59:36;;;;;;;;;36.75;30.75;;;;;20.50;42.13;100513.84;4996840;28;46759;-74
2022/03/29 11:02:14;;;;;;;;;33.50;30.50;;;;;20.59;41.72;100524.34;5003897;28;45558;-71
2022/03/29 11:05:12;;;;;;;;;27.75;24.75;;;;;20.69;41.27;100525.22;4994318;28;46475;-72
2022/03/29 11:07:53;;;;;;;;;36.75;30.25;;;;;20.80;41.72;100520.84;4951183;28;45535;-71
2022/03/29 11:10:21;;;;;;;;;37.00;31.50;;;;;20.83;41.51;100523.47;4994588;28;45230;-75
2022/03/29 11:12:57;;;;;;;;;34.75;29.25;;;;;20.84;41.84;100519.09;4976735;28;45272;-72
2022/03/29 11:15:32;;;;;;;;;33.00;30.50;;;;;20.86;41.41;100514.69;4994533;28;45450;-75
2022/03/29 11:17:57;;;;;;;;;37.75;30.50;;;;;20.79;40.84;100500.69;4994109;28;45403;-74
2022/03/29 11:20:38;;;;;;;;;44.25;35.00;;;;;20.90;41.17;100498.00;4995237;28;45427;-72
2022/03/29 11:23:09;;;;;;;;;37.75;34.00;;;;;20.97;40.57;100497.13;4994273;28;45544;-72
2022/03/29 11:25:43;;;;;;;;;32.50;30.25;;;;;20.96;40.79;100495.38;4979501;28;45531;-75
2022/03/29 11:28:17;;;;;;;;;36.50;30.75;;;;;20.93;40.69;100499.78;4985086;28;45891;-77